sensor_id;sensor_type;location;lat;lon;timestamp;P1;durP1;ratioP1;P2;durP2;ratioP2
31043;SDS011;17710;52.520;13.352;2022-07-24T00:00:05;2.53;;;1.30;;
31043;SDS011;17710;52.520;13.352;2022-07-24T00:02:33;4.45;;;0.90;;
31043;SDS011;17710;52.520;13.352;2022-07-24T00:04:59;1.23;;;0.90;;
31043;SDS011;17710;52.520;13.352;2022-07-24T00:07:26;2.30;;;0.82;;
31043;SDS011;17710;52.520;13.352;2022-07-24T00:09:52;4.07;;;1.08;;
31043;SDS011;17710;52.520;13.352;2022-07-24T00:12:20;3.55;;;1.20;;
31043;SDS011;17710;52.520;13.352;2022-07-24T00:14:46;5.63;;;1.10;;
31043;SDS011;17710;52.520;13.352;2022-07-24T00:17:14;3.75;;;0.93;;
31043;SDS011;17710;52.520;13.352;2022-07-24T00:19:41;2.00;;;1.08;;
31043;SDS011;17710;52.520;13.352;2022-07-24T00:22:07;1.98;;;1.00;;
31043;SDS011;17710;52.520;13.352;2022-07-24T00:24:34;1.00;;;0.82;;
31043;SDS011;17710;52.520;13.352;2022-07-24T00:27:00;1.27;;;1.05;;
31043;SDS011;17710;52.520;13.352;2022-07-24T00:29:27;1.55;;;0.90;;
31043;SDS011;17710;52.520;13.352;2022-07-24T00:31:54;4.47;;;1.20;;
31043;SDS011;17710;52.520;13.352;2022-07-24T00:34:21;5.40;;;1.20;;
31043;SDS011;17710;52.520;13.352;2022-07-24T00:36:48;2.42;;;0.80;;
31043;SDS011;17710;52.520;13.352;2022-07-24T00:39:14;1.92;;;1.00;;
31043;SDS011;17710;52.520;13.352;2022-07-24T00:41:41;2.53;;;1.00;;
31043;SDS011;17710;52.520;13.352;2022-07-24T00:44:08;3.30;;;1.08;;
31043;SDS011;17710;52.520;13.352;2022-07-24T00:46:36;1.10;;;1.00;;
31043;SDS011;17710;52.520;13.352;2022-07-24T00:49:04;5.03;;;1.15;;
31043;SDS011;17710;52.520;13.352;2022-07-24T00:51:34;1.60;;;0.90;;
31043;SDS011;17710;52.520;13.352;2022-07-24T00:54:02;0.85;;;0.80;;
31043;SDS011;17710;52.520;13.352;2022-07-24T00:56:29;1.67;;;0.93;;
31043;SDS011;17710;52.520;13.352;2022-07-24T00:58:56;2.88;;;1.25;;
31043;SDS011;17710;52.520;13.352;2022-07-24T01:01:22;1.20;;;0.82;;
31043;SDS011;17710;52.520;13.352;2022-07-24T01:03:48;12.30;;;1.52;;
31043;SDS011;17710;52.520;13.352;2022-07-24T01:06:15;2.55;;;1.05;;
31043;SDS011;17710;52.520;13.352;2022-07-24T01:08:43;2.03;;;1.00;;
31043;SDS011;17710;52.520;13.352;2022-07-24T01:11:09;1.77;;;0.77;;
31043;SDS011;17710;52.520;13.352;2022-07-24T01:13:37;1.67;;;0.80;;
31043;SDS011;17710;52.520;13.352;2022-07-24T01:16:05;2.72;;;0.90;;
31043;SDS011;17710;52.520;13.352;2022-07-24T01:18:31;1.90;;;1.13;;
31043;SDS011;17710;52.520;13.352;2022-07-24T01:20:59;2.08;;;1.13;;
31043;SDS011;17710;52.520;13.352;2022-07-24T01:23:25;4.75;;;0.90;;
31043;SDS011;17710;52.520;13.352;2022-07-24T01:25:52;1.98;;;1.00;;
31043;SDS011;17710;52.520;13.352;2022-07-24T01:28:18;1.77;;;1.00;;
31043;SDS011;17710;52.520;13.352;2022-07-24T01:30:45;2.08;;;0.85;;
31043;SDS011;17710;52.520;13.352;2022-07-24T01:33:12;2.67;;;1.00;;
31043;SDS011;17710;52.520;13.352;2022-07-24T01:35:39;2.00;;;0.85;;
31043;SDS011;17710;52.520;13.352;2022-07-24T01:38:07;2.65;;;1.00;;
31043;SDS011;17710;52.520;13.352;2022-07-24T01:40:33;3.20;;;0.95;;
31043;SDS011;17710;52.520;13.352;2022-07-24T01:43:00;2.50;;;1.20;;
31043;SDS011;17710;52.520;13.352;2022-07-24T01:45:27;1.73;;;0.85;;
31043;SDS011;17710;52.520;13.352;2022-07-24T01:47:53;1.63;;;0.80;;
31043;SDS011;17710;52.520;13.352;2022-07-24T01:50:20;2.00;;;1.05;;
31043;SDS011;17710;52.520;13.352;2022-07-24T01:52:46;2.83;;;1.38;;
31043;SDS011;17710;52.520;13.352;2022-07-24T01:55:14;5.10;;;1.10;;
31043;SDS011;17710;52.520;13.352;2022-07-24T01:57:41;1.75;;;1.30;;
31043;SDS011;17710;52.520;13.352;2022-07-24T02:00:08;3.28;;;1.48;;
31043;SDS011;17710;52.520;13.352;2022-07-24T02:02:37;3.70;;;1.75;;
31043;SDS011;17710;52.520;13.352;2022-07-24T02:05:03;3.47;;;1.50;;
31043;SDS011;17710;52.520;13.352;2022-07-24T02:07:30;3.40;;;1.50;;
31043;SDS011;17710;52.520;13.352;2022-07-24T02:09:56;4.68;;;1.48;;
31043;SDS011;17710;52.520;13.352;2022-07-24T02:12:24;5.38;;;1.35;;
31043;SDS011;17710;52.520;13.352;2022-07-24T02:14:51;6.20;;;1.50;;
31043;SDS011;17710;52.520;13.352;2022-07-24T02:17:17;2.15;;;1.20;;
31043;SDS011;17710;52.520;13.352;2022-07-24T02:19:43;5.38;;;1.50;;
31043;SDS011;17710;52.520;13.352;2022-07-24T02:22:10;2.65;;;1.45;;
31043;SDS011;17710;52.520;13.352;2022-07-24T02:24:36;5.25;;;1.85;;
31043;SDS011;17710;52.520;13.352;2022-07-24T02:27:03;4.43;;;1.52;;
31043;SDS011;17710;52.520;13.352;2022-07-24T02:29:30;3.83;;;1.60;;
31043;SDS011;17710;52.520;13.352;2022-07-24T02:31:57;2.58;;;1.45;;
31043;SDS011;17710;52.520;13.352;2022-07-24T02:34:23;3.25;;;1.80;;
31043;SDS011;17710;52.520;13.352;2022-07-24T02:36:50;3.55;;;1.50;;
31043;SDS011;17710;52.520;13.352;2022-07-24T02:39:16;3.72;;;1.63;;
31043;SDS011;17710;52.520;13.352;2022-07-24T02:41:43;2.70;;;1.50;;
31043;SDS011;17710;52.520;13.352;2022-07-24T02:44:09;3.20;;;1.30;;
31043;SDS011;17710;52.520;13.352;2022-07-24T02:46:37;5.88;;;2.78;;
31043;SDS011;17710;52.520;13.352;2022-07-24T02:49:03;3.40;;;1.50;;
31043;SDS011;17710;52.520;13.352;2022-07-24T02:51:29;4.20;;;1.38;;
31043;SDS011;17710;52.520;13.352;2022-07-24T02:53:56;5.68;;;1.58;;
31043;SDS011;17710;52.520;13.352;2022-07-24T02:56:22;3.97;;;1.50;;
31043;SDS011;17710;52.520;13.352;2022-07-24T02:58:49;3.72;;;1.65;;
31043;SDS011;17710;52.520;13.352;2022-07-24T03:01:15;1.15;;;1.05;;
31043;SDS011;17710;52.520;13.352;2022-07-24T03:03:43;3.80;;;1.45;;
31043;SDS011;17710;52.520;13.352;2022-07-24T03:06:09;2.78;;;1.15;;
31043;SDS011;17710;52.520;13.352;2022-07-24T03:08:35;2.00;;;1.40;;
31043;SDS011;17710;52.520;13.352;2022-07-24T03:11:02;3.10;;;1.30;;
31043;SDS011;17710;52.520;13.352;2022-07-24T03:13:28;3.78;;;1.13;;
31043;SDS011;17710;52.520;13.352;2022-07-24T03:15:55;3.35;;;1.55;;
31043;SDS011;17710;52.520;13.352;2022-07-24T03:18:21;3.72;;;1.30;;
31043;SDS011;17710;52.520;13.352;2022-07-24T03:20:48;2.75;;;1.17;;
31043;SDS011;17710;52.520;13.352;2022-07-24T03:23:15;4.30;;;1.73;;
31043;SDS011;17710;52.520;13.352;2022-07-24T03:25:42;4.93;;;1.60;;
31043;SDS011;17710;52.520;13.352;2022-07-24T03:28:09;1.65;;;1.30;;
31043;SDS011;17710;52.520;13.352;2022-07-24T03:30:35;2.08;;;1.30;;
31043;SDS011;17710;52.520;13.352;2022-07-24T03:33:02;4.50;;;1.48;;
31043;SDS011;17710;52.520;13.352;2022-07-24T03:35:28;1.88;;;1.45;;
31043;SDS011;17710;52.520;13.352;2022-07-24T03:37:56;5.28;;;1.55;;
31043;SDS011;17710;52.520;13.352;2022-07-24T03:40:22;2.03;;;1.13;;
31043;SDS011;17710;52.520;13.352;2022-07-24T03:42:48;2.70;;;1.38;;
31043;SDS011;17710;52.520;13.352;2022-07-24T03:45:15;1.35;;;1.20;;
31043;SDS011;17710;52.520;13.352;2022-07-24T03:47:41;1.80;;;1.00;;
31043;SDS011;17710;52.520;13.352;2022-07-24T03:50:08;3.58;;;1.33;;
31043;SDS011;17710;52.520;13.352;2022-07-24T03:52:34;4.13;;;1.70;;
31043;SDS011;17710;52.520;13.352;2022-07-24T03:55:02;6.38;;;1.15;;
31043;SDS011;17710;52.520;13.352;2022-07-24T03:57:29;2.88;;;1.05;;
31043;SDS011;17710;52.520;13.352;2022-07-24T03:59:56;3.35;;;1.10;;
31043;SDS011;17710;52.520;13.352;2022-07-24T04:02:22;3.88;;;0.98;;
31043;SDS011;17710;52.520;13.352;2022-07-24T04:04:49;1.20;;;0.68;;
31043;SDS011;17710;52.520;13.352;2022-07-24T04:07:15;5.78;;;1.23;;
31043;SDS011;17710;52.520;13.352;2022-07-24T04:09:41;5.18;;;1.05;;
31043;SDS011;17710;52.520;13.352;2022-07-24T04:12:09;1.50;;;0.82;;
31043;SDS011;17710;52.520;13.352;2022-07-24T04:14:35;3.75;;;0.85;;
31043;SDS011;17710;52.520;13.352;2022-07-24T04:17:02;2.33;;;0.85;;
31043;SDS011;17710;52.520;13.352;2022-07-24T04:19:28;1.80;;;0.70;;
31043;SDS011;17710;52.520;13.352;2022-07-24T04:21:55;1.58;;;0.60;;
31043;SDS011;17710;52.520;13.352;2022-07-24T04:24:22;2.65;;;0.98;;
31043;SDS011;17710;52.520;13.352;2022-07-24T04:26:48;7.07;;;1.50;;
31043;SDS011;17710;52.520;13.352;2022-07-24T04:29:16;0.98;;;0.80;;
31043;SDS011;17710;52.520;13.352;2022-07-24T04:31:42;1.65;;;0.70;;
31043;SDS011;17710;52.520;13.352;2022-07-24T04:34:10;1.38;;;0.60;;
31043;SDS011;17710;52.520;13.352;2022-07-24T04:36:36;1.60;;;0.60;;
31043;SDS011;17710;52.520;13.352;2022-07-24T04:39:03;4.10;;;1.00;;
31043;SDS011;17710;52.520;13.352;2022-07-24T04:41:29;2.05;;;0.80;;
31043;SDS011;17710;52.520;13.352;2022-07-24T04:43:56;2.53;;;0.90;;
31043;SDS011;17710;52.520;13.352;2022-07-24T04:46:23;4.35;;;1.00;;
31043;SDS011;17710;52.520;13.352;2022-07-24T04:48:50;3.47;;;0.90;;
31043;SDS011;17710;52.520;13.352;2022-07-24T04:51:16;1.83;;;0.93;;
31043;SDS011;17710;52.520;13.352;2022-07-24T04:53:42;4.78;;;1.10;;
31043;SDS011;17710;52.520;13.352;2022-07-24T04:56:09;3.45;;;0.80;;
31043;SDS011;17710;52.520;13.352;2022-07-24T04:58:35;3.20;;;1.00;;
31043;SDS011;17710;52.520;13.352;2022-07-24T05:01:02;2.00;;;0.63;;
31043;SDS011;17710;52.520;13.352;2022-07-24T05:03:29;3.05;;;0.90;;
31043;SDS011;17710;52.520;13.352;2022-07-24T05:05:56;2.67;;;1.30;;
31043;SDS011;17710;52.520;13.352;2022-07-24T05:08:22;1.65;;;0.75;;
31043;SDS011;17710;52.520;13.352;2022-07-24T05:10:48;2.63;;;0.80;;
31043;SDS011;17710;52.520;13.352;2022-07-24T05:13:15;3.75;;;0.75;;
31043;SDS011;17710;52.520;13.352;2022-07-24T05:15:42;1.25;;;0.70;;
31043;SDS011;17710;52.520;13.352;2022-07-24T05:18:09;1.30;;;0.73;;
31043;SDS011;17710;52.520;13.352;2022-07-24T05:20:36;2.28;;;0.82;;
31043;SDS011;17710;52.520;13.352;2022-07-24T05:23:03;1.20;;;0.73;;
31043;SDS011;17710;52.520;13.352;2022-07-24T05:25:29;1.60;;;0.65;;
31043;SDS011;17710;52.520;13.352;2022-07-24T05:27:55;4.10;;;0.82;;
31043;SDS011;17710;52.520;13.352;2022-07-24T05:30:22;2.83;;;0.60;;
31043;SDS011;17710;52.520;13.352;2022-07-24T05:32:48;4.18;;;1.02;;
31043;SDS011;17710;52.520;13.352;2022-07-24T05:35:15;3.53;;;0.88;;
31043;SDS011;17710;52.520;13.352;2022-07-24T05:37:42;1.42;;;0.60;;
31043;SDS011;17710;52.520;13.352;2022-07-24T05:40:09;1.52;;;0.70;;
31043;SDS011;17710;52.520;13.352;2022-07-24T05:42:36;3.47;;;0.88;;
31043;SDS011;17710;52.520;13.352;2022-07-24T05:45:03;2.58;;;0.90;;
31043;SDS011;17710;52.520;13.352;2022-07-24T05:47:34;1.23;;;0.90;;
31043;SDS011;17710;52.520;13.352;2022-07-24T05:50:01;1.90;;;0.70;;
31043;SDS011;17710;52.520;13.352;2022-07-24T05:52:28;1.25;;;0.50;;
31043;SDS011;17710;52.520;13.352;2022-07-24T05:54:55;2.08;;;0.75;;
31043;SDS011;17710;52.520;13.352;2022-07-24T05:57:21;2.00;;;0.90;;
31043;SDS011;17710;52.520;13.352;2022-07-24T05:59:48;3.20;;;0.70;;
31043;SDS011;17710;52.520;13.352;2022-07-24T06:02:14;0.60;;;0.60;;
31043;SDS011;17710;52.520;13.352;2022-07-24T06:04:40;2.40;;;0.68;;
31043;SDS011;17710;52.520;13.352;2022-07-24T06:07:08;4.30;;;0.75;;
31043;SDS011;17710;52.520;13.352;2022-07-24T06:09:35;1.05;;;0.65;;
31043;SDS011;17710;52.520;13.352;2022-07-24T06:12:03;4.30;;;0.93;;
31043;SDS011;17710;52.520;13.352;2022-07-24T06:14:30;0.95;;;0.60;;
31043;SDS011;17710;52.520;13.352;2022-07-24T06:16:56;0.82;;;0.60;;
31043;SDS011;17710;52.520;13.352;2022-07-24T06:19:23;3.05;;;1.67;;
31043;SDS011;17710;52.520;13.352;2022-07-24T06:21:50;2.25;;;0.60;;
31043;SDS011;17710;52.520;13.352;2022-07-24T06:24:16;3.20;;;0.93;;
31043;SDS011;17710;52.520;13.352;2022-07-24T06:26:43;4.15;;;0.80;;
31043;SDS011;17710;52.520;13.352;2022-07-24T06:29:11;1.33;;;0.65;;
31043;SDS011;17710;52.520;13.352;2022-07-24T06:31:37;2.25;;;0.80;;
31043;SDS011;17710;52.520;13.352;2022-07-24T06:34:04;4.65;;;0.60;;
31043;SDS011;17710;52.520;13.352;2022-07-24T06:36:30;2.80;;;0.65;;
31043;SDS011;17710;52.520;13.352;2022-07-24T06:38:57;3.20;;;0.93;;
31043;SDS011;17710;52.520;13.352;2022-07-24T06:41:23;5.72;;;0.75;;
31043;SDS011;17710;52.520;13.352;2022-07-24T06:43:49;2.05;;;0.77;;
31043;SDS011;17710;52.520;13.352;2022-07-24T06:46:17;2.28;;;0.90;;
31043;SDS011;17710;52.520;13.352;2022-07-24T06:48:43;5.28;;;1.08;;
31043;SDS011;17710;52.520;13.352;2022-07-24T06:51:10;1.27;;;0.63;;
31043;SDS011;17710;52.520;13.352;2022-07-24T06:53:36;2.33;;;0.80;;
31043;SDS011;17710;52.520;13.352;2022-07-24T06:56:06;1.65;;;0.47;;
31043;SDS011;17710;52.520;13.352;2022-07-24T06:58:33;2.70;;;1.13;;
31043;SDS011;17710;52.520;13.352;2022-07-24T07:00:59;3.58;;;1.13;;
31043;SDS011;17710;52.520;13.352;2022-07-24T07:03:27;2.00;;;0.70;;
31043;SDS011;17710;52.520;13.352;2022-07-24T07:05:53;4.03;;;0.88;;
31043;SDS011;17710;52.520;13.352;2022-07-24T07:08:19;3.67;;;0.77;;
31043;SDS011;17710;52.520;13.352;2022-07-24T07:10:46;1.10;;;0.63;;
31043;SDS011;17710;52.520;13.352;2022-07-24T07:13:12;3.00;;;0.90;;
31043;SDS011;17710;52.520;13.352;2022-07-24T07:15:39;6.22;;;0.90;;
31043;SDS011;17710;52.520;13.352;2022-07-24T07:18:05;2.72;;;0.80;;
31043;SDS011;17710;52.520;13.352;2022-07-24T07:20:33;2.28;;;0.60;;
31043;SDS011;17710;52.520;13.352;2022-07-24T07:23:00;3.10;;;0.80;;
31043;SDS011;17710;52.520;13.352;2022-07-24T07:25:26;2.00;;;0.60;;
31043;SDS011;17710;52.520;13.352;2022-07-24T07:27:53;0.77;;;0.63;;
31043;SDS011;17710;52.520;13.352;2022-07-24T07:30:19;8.20;;;1.35;;
31043;SDS011;17710;52.520;13.352;2022-07-24T07:32:46;1.60;;;0.77;;
31043;SDS011;17710;52.520;13.352;2022-07-24T07:35:14;1.02;;;0.60;;
31043;SDS011;17710;52.520;13.352;2022-07-24T07:37:41;3.28;;;0.68;;
31043;SDS011;17710;52.520;13.352;2022-07-24T07:40:10;4.40;;;1.00;;
31043;SDS011;17710;52.520;13.352;2022-07-24T07:42:37;0.63;;;0.63;;
31043;SDS011;17710;52.520;13.352;2022-07-24T07:45:04;1.27;;;0.77;;
31043;SDS011;17710;52.520;13.352;2022-07-24T07:47:31;4.10;;;0.90;;
31043;SDS011;17710;52.520;13.352;2022-07-24T07:49:58;1.15;;;0.85;;
31043;SDS011;17710;52.520;13.352;2022-07-24T07:52:24;3.83;;;0.95;;
31043;SDS011;17710;52.520;13.352;2022-07-24T07:54:52;2.67;;;0.52;;
31043;SDS011;17710;52.520;13.352;2022-07-24T07:57:18;1.63;;;0.60;;
31043;SDS011;17710;52.520;13.352;2022-07-24T07:59:45;3.75;;;0.90;;
31043;SDS011;17710;52.520;13.352;2022-07-24T08:02:11;1.45;;;0.73;;
31043;SDS011;17710;52.520;13.352;2022-07-24T08:04:38;2.38;;;0.77;;
31043;SDS011;17710;52.520;13.352;2022-07-24T08:07:04;3.28;;;0.68;;
31043;SDS011;17710;52.520;13.352;2022-07-24T08:09:30;0.73;;;0.50;;
31043;SDS011;17710;52.520;13.352;2022-07-24T08:12:02;0.75;;;0.50;;
31043;SDS011;17710;52.520;13.352;2022-07-24T08:14:28;1.13;;;0.50;;
31043;SDS011;17710;52.520;13.352;2022-07-24T08:16:55;1.00;;;0.60;;
31043;SDS011;17710;52.520;13.352;2022-07-24T08:19:21;1.35;;;0.63;;
31043;SDS011;17710;52.520;13.352;2022-07-24T08:21:48;0.80;;;0.30;;
31043;SDS011;17710;52.520;13.352;2022-07-24T08:24:15;2.28;;;0.40;;
31043;SDS011;17710;52.520;13.352;2022-07-24T08:26:45;0.70;;;0.43;;
31043;SDS011;17710;52.520;13.352;2022-07-24T08:29:13;2.47;;;0.80;;
31043;SDS011;17710;52.520;13.352;2022-07-24T08:31:39;0.30;;;0.30;;
31043;SDS011;17710;52.520;13.352;2022-07-24T08:34:06;1.50;;;0.38;;
31043;SDS011;17710;52.520;13.352;2022-07-24T08:36:32;0.85;;;0.47;;
31043;SDS011;17710;52.520;13.352;2022-07-24T08:38:59;4.93;;;0.40;;
31043;SDS011;17710;52.520;13.352;2022-07-24T08:41:26;2.53;;;0.50;;
31043;SDS011;17710;52.520;13.352;2022-07-24T08:43:57;1.02;;;0.80;;
31043;SDS011;17710;52.520;13.352;2022-07-24T08:46:25;1.55;;;0.50;;
31043;SDS011;17710;52.520;13.352;2022-07-24T08:48:53;2.25;;;0.75;;
31043;SDS011;17710;52.520;13.352;2022-07-24T08:51:20;0.95;;;0.45;;
31043;SDS011;17710;52.520;13.352;2022-07-24T08:53:47;0.88;;;0.40;;
31043;SDS011;17710;52.520;13.352;2022-07-24T08:56:14;1.15;;;0.40;;
31043;SDS011;17710;52.520;13.352;2022-07-24T08:58:42;2.30;;;0.50;;
31043;SDS011;17710;52.520;13.352;2022-07-24T09:01:08;3.35;;;0.40;;
31043;SDS011;17710;52.520;13.352;2022-07-24T09:03:40;2.30;;;0.60;;
31043;SDS011;17710;52.520;13.352;2022-07-24T09:06:08;0.45;;;0.40;;
31043;SDS011;17710;52.520;13.352;2022-07-24T09:08:35;1.58;;;0.50;;
31043;SDS011;17710;52.520;13.352;2022-07-24T09:11:02;0.75;;;0.57;;
31043;SDS011;17710;52.520;13.352;2022-07-24T09:13:30;1.10;;;0.50;;
31043;SDS011;17710;52.520;13.352;2022-07-24T09:16:19;1.08;;;0.70;;
31043;SDS011;17710;52.520;13.352;2022-07-24T09:18:50;2.47;;;1.30;;
31043;SDS011;17710;52.520;13.352;2022-07-24T09:21:18;2.03;;;0.80;;
31043;SDS011;17710;52.520;13.352;2022-07-24T09:23:45;1.20;;;0.70;;
31043;SDS011;17710;52.520;13.352;2022-07-24T09:26:13;1.13;;;0.63;;
31043;SDS011;17710;52.520;13.352;2022-07-24T09:28:47;1.65;;;0.80;;
31043;SDS011;17710;52.520;13.352;2022-07-24T09:31:15;3.45;;;0.60;;
31043;SDS011;17710;52.520;13.352;2022-07-24T09:33:45;1.05;;;0.70;;
31043;SDS011;17710;52.520;13.352;2022-07-24T09:36:14;1.33;;;0.70;;
31043;SDS011;17710;52.520;13.352;2022-07-24T09:38:46;1.23;;;0.57;;
31043;SDS011;17710;52.520;13.352;2022-07-24T09:41:18;1.05;;;0.60;;
31043;SDS011;17710;52.520;13.352;2022-07-24T09:43:55;1.83;;;0.70;;
31043;SDS011;17710;52.520;13.352;2022-07-24T09:46:24;2.15;;;0.68;;
31043;SDS011;17710;52.520;13.352;2022-07-24T09:48:52;1.98;;;0.65;;
31043;SDS011;17710;52.520;13.352;2022-07-24T09:51:23;1.38;;;0.57;;
31043;SDS011;17710;52.520;13.352;2022-07-24T09:53:52;1.02;;;0.70;;
31043;SDS011;17710;52.520;13.352;2022-07-24T09:56:19;1.98;;;0.60;;
31043;SDS011;17710;52.520;13.352;2022-07-24T09:58:47;1.52;;;0.60;;
31043;SDS011;17710;52.520;13.352;2022-07-24T10:01:17;4.38;;;0.60;;
31043;SDS011;17710;52.520;13.352;2022-07-24T10:03:45;0.60;;;0.55;;
31043;SDS011;17710;52.520;13.352;2022-07-24T10:06:13;1.15;;;0.70;;
31043;SDS011;17710;52.520;13.352;2022-07-24T10:08:44;0.60;;;0.60;;
31043;SDS011;17710;52.520;13.352;2022-07-24T10:11:12;2.35;;;0.70;;
31043;SDS011;17710;52.520;13.352;2022-07-24T10:13:39;1.05;;;0.75;;
31043;SDS011;17710;52.520;13.352;2022-07-24T10:16:22;1.02;;;0.80;;
31043;SDS011;17710;52.520;13.352;2022-07-24T10:18:53;1.23;;;0.80;;
31043;SDS011;17710;52.520;13.352;2022-07-24T10:21:22;2.03;;;0.70;;
31043;SDS011;17710;52.520;13.352;2022-07-24T10:23:57;2.80;;;1.08;;
31043;SDS011;17710;52.520;13.352;2022-07-24T10:26:37;2.75;;;0.90;;
31043;SDS011;17710;52.520;13.352;2022-07-24T10:29:06;1.25;;;0.82;;
31043;SDS011;17710;52.520;13.352;2022-07-24T10:31:35;2.60;;;1.30;;
31043;SDS011;17710;52.520;13.352;2022-07-24T10:34:03;3.38;;;0.95;;
31043;SDS011;17710;52.520;13.352;2022-07-24T10:36:36;1.25;;;1.05;;
31043;SDS011;17710;52.520;13.352;2022-07-24T10:39:12;1.35;;;0.90;;
31043;SDS011;17710;52.520;13.352;2022-07-24T10:41:52;1.65;;;1.00;;
31043;SDS011;17710;52.520;13.352;2022-07-24T10:44:26;2.38;;;1.42;;
31043;SDS011;17710;52.520;13.352;2022-07-24T10:47:00;1.77;;;1.00;;
31043;SDS011;17710;52.520;13.352;2022-07-24T10:49:45;2.33;;;1.00;;
31043;SDS011;17710;52.520;13.352;2022-07-24T10:52:21;2.05;;;0.90;;
31043;SDS011;17710;52.520;13.352;2022-07-24T10:57:56;0.82;;;0.77;;
31043;SDS011;17710;52.520;13.352;2022-07-24T11:00:26;2.42;;;0.80;;
31043;SDS011;17710;52.520;13.352;2022-07-24T11:02:58;2.38;;;1.05;;
31043;SDS011;17710;52.520;13.352;2022-07-24T11:05:27;2.30;;;1.25;;
31043;SDS011;17710;52.520;13.352;2022-07-24T11:11:06;0.88;;;0.88;;
31043;SDS011;17710;52.520;13.352;2022-07-24T11:13:45;1.83;;;1.02;;
31043;SDS011;17710;52.520;13.352;2022-07-24T11:16:16;1.10;;;1.00;;
31043;SDS011;17710;52.520;13.352;2022-07-24T11:27:45;2.80;;;1.52;;
31043;SDS011;17710;52.520;13.352;2022-07-24T11:30:18;1.90;;;1.35;;
31043;SDS011;17710;52.520;13.352;2022-07-24T11:32:45;3.70;;;1.13;;
31043;SDS011;17710;52.520;13.352;2022-07-24T11:35:12;1.67;;;1.17;;
31043;SDS011;17710;52.520;13.352;2022-07-24T11:37:39;2.35;;;1.20;;
31043;SDS011;17710;52.520;13.352;2022-07-24T11:40:07;2.15;;;1.00;;
31043;SDS011;17710;52.520;13.352;2022-07-24T11:42:35;1.52;;;0.95;;
31043;SDS011;17710;52.520;13.352;2022-07-24T11:45:04;2.15;;;1.10;;
31043;SDS011;17710;52.520;13.352;2022-07-24T11:47:31;1.95;;;0.82;;
31043;SDS011;17710;52.520;13.352;2022-07-24T11:50:02;2.80;;;1.00;;
31043;SDS011;17710;52.520;13.352;2022-07-24T11:52:31;1.70;;;1.00;;
31043;SDS011;17710;52.520;13.352;2022-07-24T11:55:00;3.42;;;1.23;;
31043;SDS011;17710;52.520;13.352;2022-07-24T11:57:29;1.10;;;0.93;;
31043;SDS011;17710;52.520;13.352;2022-07-24T11:59:56;2.78;;;1.20;;
31043;SDS011;17710;52.520;13.352;2022-07-24T12:02:25;2.75;;;1.08;;
31043;SDS011;17710;52.520;13.352;2022-07-24T12:04:52;1.42;;;0.90;;
31043;SDS011;17710;52.520;13.352;2022-07-24T12:07:19;1.63;;;1.02;;
31043;SDS011;17710;52.520;13.352;2022-07-24T12:09:47;0.73;;;0.70;;
31043;SDS011;17710;52.520;13.352;2022-07-24T12:12:19;1.75;;;1.08;;
31043;SDS011;17710;52.520;13.352;2022-07-24T12:14:47;4.35;;;1.33;;
31043;SDS011;17710;52.520;13.352;2022-07-24T12:17:14;1.20;;;0.80;;
31043;SDS011;17710;52.520;13.352;2022-07-24T12:19:43;1.65;;;1.00;;
31043;SDS011;17710;52.520;13.352;2022-07-24T12:22:17;3.22;;;1.02;;
31043;SDS011;17710;52.520;13.352;2022-07-24T12:24:44;3.53;;;1.33;;
31043;SDS011;17710;52.520;13.352;2022-07-24T12:27:11;2.63;;;0.98;;
31043;SDS011;17710;52.520;13.352;2022-07-24T12:29:40;1.95;;;1.00;;
31043;SDS011;17710;52.520;13.352;2022-07-24T12:32:14;1.42;;;1.05;;
31043;SDS011;17710;52.520;13.352;2022-07-24T12:34:43;2.35;;;1.58;;
31043;SDS011;17710;52.520;13.352;2022-07-24T12:37:14;2.28;;;0.85;;
31043;SDS011;17710;52.520;13.352;2022-07-24T12:39:44;3.28;;;1.00;;
31043;SDS011;17710;52.520;13.352;2022-07-24T12:42:12;1.90;;;1.20;;
31043;SDS011;17710;52.520;13.352;2022-07-24T12:44:39;1.48;;;1.15;;
31043;SDS011;17710;52.520;13.352;2022-07-24T12:47:07;1.80;;;1.10;;
31043;SDS011;17710;52.520;13.352;2022-07-24T12:49:39;0.75;;;0.70;;
31043;SDS011;17710;52.520;13.352;2022-07-24T12:52:19;2.10;;;0.90;;
31043;SDS011;17710;52.520;13.352;2022-07-24T12:54:48;3.50;;;1.45;;
31043;SDS011;17710;52.520;13.352;2022-07-24T12:57:15;1.00;;;0.90;;
31043;SDS011;17710;52.520;13.352;2022-07-24T12:59:42;2.85;;;1.15;;
31043;SDS011;17710;52.520;13.352;2022-07-24T13:02:10;4.88;;;1.15;;
31043;SDS011;17710;52.520;13.352;2022-07-24T13:04:41;3.00;;;1.13;;
31043;SDS011;17710;52.520;13.352;2022-07-24T13:07:09;4.15;;;0.82;;
31043;SDS011;17710;52.520;13.352;2022-07-24T13:09:38;2.83;;;0.80;;
31043;SDS011;17710;52.520;13.352;2022-07-24T13:12:07;1.70;;;0.80;;
31043;SDS011;17710;52.520;13.352;2022-07-24T13:14:35;1.58;;;1.08;;
31043;SDS011;17710;52.520;13.352;2022-07-24T13:17:04;1.83;;;0.90;;
31043;SDS011;17710;52.520;13.352;2022-07-24T13:19:34;1.70;;;1.13;;
31043;SDS011;17710;52.520;13.352;2022-07-24T13:22:01;3.17;;;1.13;;
31043;SDS011;17710;52.520;13.352;2022-07-24T13:24:27;2.40;;;0.90;;
31043;SDS011;17710;52.520;13.352;2022-07-24T13:26:55;2.83;;;1.00;;
31043;SDS011;17710;52.520;13.352;2022-07-24T13:29:22;1.05;;;0.90;;
31043;SDS011;17710;52.520;13.352;2022-07-24T13:31:49;2.15;;;1.00;;
31043;SDS011;17710;52.520;13.352;2022-07-24T13:34:15;2.85;;;0.88;;
31043;SDS011;17710;52.520;13.352;2022-07-24T13:36:42;1.17;;;0.93;;
31043;SDS011;17710;52.520;13.352;2022-07-24T13:39:08;0.95;;;0.85;;
31043;SDS011;17710;52.520;13.352;2022-07-24T13:41:35;0.93;;;0.88;;
31043;SDS011;17710;52.520;13.352;2022-07-24T13:44:04;3.10;;;1.10;;
31043;SDS011;17710;52.520;13.352;2022-07-24T13:46:31;2.00;;;0.88;;
31043;SDS011;17710;52.520;13.352;2022-07-24T13:48:59;0.90;;;0.77;;
31043;SDS011;17710;52.520;13.352;2022-07-24T13:51:28;1.02;;;0.93;;
31043;SDS011;17710;52.520;13.352;2022-07-24T13:53:54;1.77;;;1.00;;
31043;SDS011;17710;52.520;13.352;2022-07-24T13:56:21;0.60;;;0.60;;
31043;SDS011;17710;52.520;13.352;2022-07-24T13:58:47;0.70;;;0.70;;
31043;SDS011;17710;52.520;13.352;2022-07-24T14:01:16;1.40;;;1.00;;
31043;SDS011;17710;52.520;13.352;2022-07-24T14:03:44;1.50;;;1.40;;
31043;SDS011;17710;52.520;13.352;2022-07-24T14:06:11;1.05;;;0.95;;
31043;SDS011;17710;52.520;13.352;2022-07-24T14:08:39;1.48;;;0.90;;
31043;SDS011;17710;52.520;13.352;2022-07-24T14:11:06;1.48;;;0.85;;
31043;SDS011;17710;52.520;13.352;2022-07-24T14:13:33;0.85;;;0.85;;
31043;SDS011;17710;52.520;13.352;2022-07-24T14:16:00;1.88;;;1.02;;
31043;SDS011;17710;52.520;13.352;2022-07-24T14:18:28;0.80;;;0.80;;
31043;SDS011;17710;52.520;13.352;2022-07-24T14:20:55;2.25;;;0.90;;
31043;SDS011;17710;52.520;13.352;2022-07-24T14:23:21;2.00;;;0.77;;
31043;SDS011;17710;52.520;13.352;2022-07-24T14:25:48;0.80;;;0.77;;
31043;SDS011;17710;52.520;13.352;2022-07-24T14:28:14;2.60;;;0.80;;
31043;SDS011;17710;52.520;13.352;2022-07-24T14:30:41;1.45;;;0.90;;
31043;SDS011;17710;52.520;13.352;2022-07-24T14:33:08;1.52;;;0.85;;
31043;SDS011;17710;52.520;13.352;2022-07-24T14:35:35;1.13;;;0.90;;
31043;SDS011;17710;52.520;13.352;2022-07-24T14:38:02;0.75;;;0.70;;
31043;SDS011;17710;52.520;13.352;2022-07-24T14:40:29;2.05;;;1.25;;
31043;SDS011;17710;52.520;13.352;2022-07-24T14:42:55;1.13;;;0.70;;
31043;SDS011;17710;52.520;13.352;2022-07-24T14:45:22;0.80;;;0.80;;
31043;SDS011;17710;52.520;13.352;2022-07-24T14:47:49;1.42;;;0.80;;
31043;SDS011;17710;52.520;13.352;2022-07-24T14:50:15;1.27;;;0.80;;